createdAt,value
2023-01-12T00:02:20.581Z,5.57
2023-01-12T00:04:48.937Z,5.68
2023-01-12T00:07:18.264Z,8.55
2023-01-12T00:09:46.615Z,6.25
2023-01-12T00:12:14.941Z,7.72
2023-01-12T00:14:43.148Z,7.88
2023-01-12T00:17:14.325Z,7.20
2023-01-12T00:19:42.550Z,6.70
2023-01-12T00:22:12.632Z,8.43
2023-01-12T00:24:49.782Z,7.07
2023-01-12T00:27:20.444Z,6.88
2023-01-12T00:29:50.305Z,7.75
2023-01-12T00:32:20.749Z,9.85
2023-01-12T00:34:49.088Z,8.75
2023-01-12T00:37:17.249Z,6.72
2023-01-12T00:40:00.992Z,5.80
2023-01-12T00:42:48.521Z,9.60
2023-01-12T00:45:22.739Z,7.00
2023-01-12T00:47:51.516Z,7.97
2023-01-12T00:50:20.031Z,7.10
2023-01-12T00:52:48.215Z,10.18
2023-01-12T00:55:19.415Z,8.02
2023-01-12T00:57:48.144Z,8.13
2023-01-12T01:00:17.163Z,6.35
2023-01-12T01:02:45.448Z,9.05
2023-01-12T01:05:13.912Z,10.07
2023-01-12T01:07:42.098Z,7.15
2023-01-12T01:10:14.374Z,9.38
2023-01-12T01:12:43.093Z,7.25
2023-01-12T01:15:11.715Z,7.72
2023-01-12T01:17:39.833Z,7.85
2023-01-12T01:20:08.488Z,9.48
2023-01-12T01:22:36.703Z,7.22
2023-01-12T01:25:05.217Z,6.32
2023-01-12T01:27:34.512Z,5.10
2023-01-12T01:30:02.778Z,7.18
2023-01-12T01:32:31.005Z,8.98
2023-01-12T01:34:59.155Z,7.05
2023-01-12T01:37:28.321Z,6.45
2023-01-12T01:39:56.535Z,6.55
2023-01-12T01:42:28.824Z,6.57
2023-01-12T01:44:59.468Z,6.67
2023-01-12T01:47:50.389Z,6.03
2023-01-12T01:50:28.812Z,7.53
2023-01-12T01:53:02.403Z,9.02
2023-01-12T01:55:36.715Z,8.30
2023-01-12T01:58:16.707Z,8.52
2023-01-12T02:00:46.397Z,9.05
2023-01-12T02:03:16.437Z,9.27
2023-01-12T02:05:49.019Z,9.70
2023-01-12T02:08:28.893Z,8.98
2023-01-12T02:10:58.989Z,9.18
2023-01-12T02:13:49.631Z,9.20
2023-01-12T02:16:25.644Z,6.07
2023-01-12T02:18:56.689Z,5.97
2023-01-12T02:22:00.314Z,6.13
2023-01-12T02:24:34.442Z,7.07
2023-01-12T02:27:11.600Z,6.90
2023-01-12T02:30:14.206Z,6.38
2023-01-12T02:33:14.301Z,6.57
2023-01-12T02:36:05.659Z,5.85
2023-01-12T02:38:40.906Z,9.38
2023-01-12T02:41:19.637Z,7.07
2023-01-12T02:43:47.900Z,8.15
2023-01-12T02:46:26.247Z,8.82
2023-01-12T02:49:15.001Z,12.55
2023-01-12T02:52:03.809Z,10.80
2023-01-12T02:54:34.863Z,9.90
2023-01-12T02:57:07.574Z,10.60
2023-01-12T02:59:45.366Z,10.93
2023-01-12T03:02:19.978Z,7.93
2023-01-12T03:04:48.539Z,11.27
2023-01-12T03:07:36.038Z,8.32
2023-01-12T03:10:10.198Z,9.73
2023-01-12T03:12:43.688Z,10.82
2023-01-12T03:15:16.236Z,9.55
2023-01-12T03:17:48.054Z,11.18
2023-01-12T03:20:23.210Z,7.90
2023-01-12T03:22:57.967Z,10.57
2023-01-12T03:25:28.571Z,11.60
2023-01-12T03:27:59.967Z,11.32
2023-01-12T03:30:38.942Z,9.23
2023-01-12T03:33:08.907Z,10.38
2023-01-12T03:35:47.480Z,10.32
2023-01-12T03:38:51.184Z,10.07
2023-01-12T03:41:38.100Z,10.52
2023-01-12T03:44:12.668Z,11.05
2023-01-12T03:46:46.886Z,11.68
2023-01-12T03:49:47.765Z,9.90
2023-01-12T03:52:18.091Z,11.80
2023-01-12T03:54:49.664Z,11.35
2023-01-12T03:57:19.951Z,11.73
2023-01-12T03:59:49.288Z,10.75
2023-01-12T04:02:17.646Z,10.13
2023-01-12T04:04:45.988Z,9.57
2023-01-12T04:07:14.215Z,9.95
2023-01-12T04:09:44.757Z,11.95
2023-01-12T04:12:13.068Z,9.32
2023-01-12T04:14:47.948Z,11.00
2023-01-12T04:17:16.694Z,14.50
2023-01-12T04:19:45.034Z,9.77
2023-01-12T04:22:34.594Z,13.05
2023-01-12T04:25:03.607Z,9.23
2023-01-12T04:27:31.807Z,9.80
2023-01-12T04:29:59.966Z,10.60
2023-01-12T04:32:28.250Z,9.30
2023-01-12T04:34:56.396Z,8.90
2023-01-12T04:37:24.742Z,13.20
2023-01-12T04:39:52.937Z,10.13
2023-01-12T04:42:39.810Z,7.95
2023-01-12T04:45:08.462Z,6.60
2023-01-12T04:47:36.604Z,9.75
2023-01-12T04:50:05.554Z,9.45
2023-01-12T04:52:34.718Z,8.07
2023-01-12T04:55:03.591Z,8.65
2023-01-12T04:57:32.552Z,5.53
2023-01-12T05:00:00.738Z,6.22
2023-01-12T05:02:29.152Z,7.82
2023-01-12T05:04:57.276Z,7.05
2023-01-12T05:07:25.464Z,6.78
2023-01-12T05:10:12.302Z,8.25
2023-01-12T05:12:40.585Z,7.60
2023-01-12T05:15:09.580Z,11.45
2023-01-12T05:17:37.765Z,7.70
2023-01-12T05:20:06.599Z,6.15
2023-01-12T05:22:34.903Z,10.20
2023-01-12T05:25:03.057Z,9.00
2023-01-12T05:27:31.242Z,6.15
2023-01-12T05:29:59.776Z,6.15
2023-01-12T05:32:28.004Z,5.40
2023-01-12T05:34:56.139Z,3.67
2023-01-12T05:37:24.340Z,6.05
2023-01-12T05:39:52.498Z,6.65
2023-01-12T05:42:39.380Z,7.15
2023-01-12T05:45:08.224Z,5.80
2023-01-12T05:47:36.552Z,7.70
2023-01-12T05:50:05.680Z,6.53
2023-01-12T05:52:33.849Z,8.65
2023-01-12T05:55:03.796Z,7.45
2023-01-12T05:57:32.183Z,9.88
2023-01-12T06:00:00.411Z,6.85
2023-01-12T06:02:28.846Z,6.38
2023-01-12T06:04:57.142Z,8.60
2023-01-12T06:07:25.356Z,11.70
2023-01-12T06:09:55.884Z,10.70
2023-01-12T06:12:42.621Z,9.98
2023-01-12T06:15:11.004Z,6.97
2023-01-12T06:17:39.391Z,12.40
2023-01-12T06:20:08.249Z,8.90
2023-01-12T06:22:36.452Z,13.02
2023-01-12T06:25:04.875Z,6.80
2023-01-12T06:27:35.430Z,7.05
2023-01-12T06:30:07.352Z,5.78
2023-01-12T06:32:36.071Z,7.93
2023-01-12T06:35:17.955Z,10.77
2023-01-12T06:37:46.776Z,10.15
2023-01-12T06:40:15.232Z,7.22
2023-01-12T06:42:46.843Z,9.98
2023-01-12T06:45:15.235Z,9.60
2023-01-12T06:47:49.369Z,17.48
2023-01-12T06:50:17.747Z,18.15
2023-01-12T06:52:46.047Z,13.93
2023-01-12T06:55:14.403Z,19.60
2023-01-12T06:57:42.719Z,16.92
2023-01-12T07:00:13.283Z,12.30
2023-01-12T07:02:41.531Z,12.30
2023-01-12T07:05:09.893Z,11.50
2023-01-12T07:07:40.038Z,10.18
2023-01-12T07:10:09.709Z,11.73
2023-01-12T07:12:38.621Z,10.70
2023-01-12T07:15:07.448Z,11.80
2023-01-12T07:17:35.641Z,12.88
2023-01-12T07:20:04.166Z,14.68
2023-01-12T07:22:32.678Z,13.05
2023-01-12T07:25:01.062Z,11.82
2023-01-12T07:27:29.460Z,11.45
2023-01-12T07:29:57.653Z,13.20
2023-01-12T07:32:27.530Z,18.58
2023-01-12T07:34:55.691Z,12.52
2023-01-12T07:37:23.934Z,12.88
2023-01-12T07:39:52.042Z,15.63
2023-01-12T07:42:26.046Z,11.10
2023-01-12T07:44:54.435Z,18.80
2023-01-12T07:47:23.065Z,18.38
2023-01-12T07:49:51.266Z,10.05
2023-01-12T07:52:19.474Z,12.77
2023-01-12T07:54:47.682Z,11.25
2023-01-12T07:57:16.016Z,10.60
2023-01-12T07:59:44.262Z,16.27
2023-01-12T08:02:16.596Z,33.58
2023-01-12T08:04:46.128Z,16.83
2023-01-12T08:07:15.089Z,18.40
2023-01-12T08:09:43.464Z,22.50
2023-01-12T08:12:11.716Z,21.85
2023-01-12T08:14:41.914Z,19.30
2023-01-12T08:17:20.571Z,16.05
2023-01-12T08:20:02.863Z,14.25
2023-01-12T08:22:38.042Z,25.73
2023-01-12T08:25:30.554Z,17.17
2023-01-12T08:28:04.593Z,28.00
2023-01-12T08:30:33.013Z,16.83
2023-01-12T08:33:02.555Z,16.02
2023-01-12T08:35:34.595Z,9.00
2023-01-12T08:38:02.781Z,12.15
2023-01-12T08:40:50.951Z,9.68
2023-01-12T08:43:39.115Z,22.35
2023-01-12T08:46:10.633Z,23.83
2023-01-12T08:48:39.235Z,16.30
2023-01-12T08:51:08.521Z,16.33
2023-01-12T08:53:36.808Z,14.98
2023-01-12T08:56:06.391Z,17.45
2023-01-12T08:58:34.572Z,15.80
2023-01-12T09:01:10.807Z,20.08
2023-01-12T09:03:39.560Z,19.13
2023-01-12T09:06:23.872Z,19.50
2023-01-12T09:08:57.219Z,18.55
2023-01-12T09:13:56.260Z,20.40
2023-01-12T09:16:25.384Z,21.05
2023-01-12T09:18:53.978Z,17.70
2023-01-12T09:21:25.369Z,22.38
2023-01-12T09:23:54.820Z,23.05
2023-01-12T09:26:26.967Z,17.58
2023-01-12T09:28:57.027Z,21.35
2023-01-12T09:31:25.735Z,21.95
2023-01-12T09:33:54.693Z,21.23
2023-01-12T09:36:32.310Z,18.13
2023-01-12T09:39:02.104Z,19.35
2023-01-12T09:42:08.500Z,16.13
2023-01-12T09:45:01.902Z,22.48
2023-01-12T09:47:40.778Z,24.70
2023-01-12T09:50:15.978Z,17.95
2023-01-12T09:52:50.555Z,22.80
2023-01-12T09:55:29.500Z,21.38
2023-01-12T09:58:16.412Z,20.05
2023-01-12T10:00:49.022Z,17.73
2023-01-12T10:03:38.993Z,22.75
2023-01-12T10:06:09.374Z,17.52
2023-01-12T10:08:44.600Z,19.25
2023-01-12T10:11:19.384Z,28.27
2023-01-12T10:14:24.480Z,17.35
2023-01-12T10:17:10.245Z,13.82
2023-01-12T10:20:06.293Z,21.83
2023-01-12T10:22:42.339Z,18.00
2023-01-12T10:25:23.221Z,17.02
2023-01-12T10:27:54.013Z,19.30
2023-01-12T10:30:42.549Z,22.92
2023-01-12T10:33:21.139Z,32.10
2023-01-12T10:35:55.417Z,23.45
2023-01-12T10:38:28.330Z,20.15
2023-01-12T10:41:13.281Z,27.15
2023-01-12T10:43:43.814Z,23.83
2023-01-12T10:46:12.044Z,21.10
2023-01-12T10:48:48.699Z,23.83
2023-01-12T10:51:26.631Z,25.27
2023-01-12T10:54:10.047Z,23.70
2023-01-12T10:56:41.626Z,27.20
2023-01-12T10:59:12.966Z,26.33
2023-01-12T11:02:08.612Z,24.27
2023-01-12T11:04:43.737Z,27.52
2023-01-12T11:07:22.205Z,24.15
2023-01-12T11:09:50.461Z,28.13
2023-01-12T11:12:18.601Z,25.35
2023-01-12T11:15:00.913Z,30.33
2023-01-12T11:17:57.010Z,23.60
2023-01-12T11:20:31.187Z,27.85
2023-01-12T11:23:03.165Z,23.20
2023-01-12T11:25:38.048Z,20.25
2023-01-12T11:28:19.803Z,23.40
2023-01-12T11:31:05.362Z,23.40
2023-01-12T11:33:46.281Z,23.30
2023-01-12T11:36:41.492Z,29.42
2023-01-12T11:39:22.789Z,24.83
2023-01-12T11:42:13.743Z,29.27
2023-01-12T11:45:01.685Z,22.13
2023-01-12T11:47:36.064Z,31.95
2023-01-12T11:50:28.448Z,27.88
2023-01-12T11:52:57.966Z,21.52
2023-01-12T11:56:06.101Z,25.10
2023-01-12T11:58:45.844Z,24.88
2023-01-12T12:01:41.167Z,22.60
2023-01-12T12:04:24.294Z,24.80
2023-01-12T12:07:01.049Z,23.60
2023-01-12T12:09:43.788Z,20.45
2023-01-12T12:12:46.756Z,24.70
2023-01-12T12:15:28.754Z,20.77
2023-01-12T12:18:27.394Z,18.17
2023-01-12T12:21:33.493Z,28.48
2023-01-12T12:24:23.053Z,26.92
2023-01-12T12:26:57.483Z,23.17
2023-01-12T12:29:56.822Z,24.73
2023-01-12T12:32:30.464Z,26.70
2023-01-12T12:35:18.884Z,24.88
2023-01-12T12:38:14.353Z,22.65
2023-01-12T12:41:10.448Z,16.85
2023-01-12T12:43:57.808Z,18.15
2023-01-12T12:46:47.450Z,19.05
2023-01-12T12:49:23.534Z,17.27
2023-01-12T12:51:53.083Z,16.65
2023-01-12T12:54:26.137Z,18.65
2023-01-12T12:56:55.918Z,20.75
2023-01-12T12:59:32.999Z,14.63
2023-01-12T13:02:03.605Z,20.55
2023-01-12T13:04:43.847Z,13.55
2023-01-12T13:07:19.114Z,19.05
2023-01-12T13:09:48.919Z,14.98
2023-01-12T13:12:31.131Z,14.77
2023-01-12T13:15:18.945Z,15.82
2023-01-12T13:17:49.851Z,23.90
2023-01-12T13:20:33.777Z,16.58
2023-01-12T13:23:02.044Z,14.27
2023-01-12T13:25:36.576Z,17.50
2023-01-12T13:28:04.736Z,20.40
2023-01-12T13:30:34.286Z,15.40
2023-01-12T13:33:25.983Z,11.30
2023-01-12T13:35:55.282Z,11.43
2023-01-12T13:38:52.289Z,13.30
2023-01-12T13:41:44.627Z,13.43
2023-01-12T13:44:34.810Z,14.73
2023-01-12T13:47:09.517Z,20.30
2023-01-12T13:49:46.546Z,12.90
2023-01-12T13:52:37.121Z,17.58
2023-01-12T13:55:19.982Z,21.10
2023-01-12T13:58:14.232Z,23.03
2023-01-12T14:00:42.993Z,14.18
2023-01-12T14:03:42.896Z,17.42
2023-01-12T14:06:33.987Z,13.88
2023-01-12T14:09:12.920Z,14.13
2023-01-12T14:11:50.501Z,13.25
2023-01-12T14:15:12.857Z,13.43
2023-01-12T14:17:50.336Z,11.55
2023-01-12T14:20:22.399Z,12.68
2023-01-12T14:23:05.328Z,17.10
2023-01-12T14:25:33.519Z,16.25
2023-01-12T14:28:01.733Z,8.85
2023-01-12T14:30:30.366Z,13.80
2023-01-12T14:32:58.683Z,12.88
2023-01-12T14:35:26.955Z,9.05
2023-01-12T14:38:01.431Z,13.80
2023-01-12T14:40:33.499Z,11.40
2023-01-12T14:43:21.796Z,11.02
2023-01-12T14:46:20.262Z,11.43
2023-01-12T14:48:58.867Z,10.48
2023-01-12T14:51:37.967Z,13.32
2023-01-12T14:54:06.181Z,11.40
2023-01-12T14:56:56.903Z,11.40
2023-01-12T14:59:30.366Z,11.93
2023-01-12T15:02:13.952Z,12.75
2023-01-12T15:07:38.855Z,11.18
2023-01-12T15:10:09.837Z,10.90
2023-01-12T15:12:48.392Z,9.50
2023-01-12T15:15:22.494Z,9.70
2023-01-12T15:18:11.393Z,11.13
2023-01-12T15:21:02.989Z,18.50
2023-01-12T15:23:54.902Z,12.27
2023-01-12T15:26:23.501Z,14.18
2023-01-12T15:28:51.753Z,15.77
2023-01-12T15:31:36.752Z,11.82
2023-01-12T15:34:05.870Z,14.13
2023-01-12T15:36:34.196Z,9.40
2023-01-12T15:39:02.376Z,16.20
2023-01-12T15:41:50.850Z,15.65
2023-01-12T15:44:21.465Z,15.55
2023-01-12T15:46:49.693Z,12.43
2023-01-12T15:49:17.908Z,13.48
2023-01-12T15:51:52.976Z,14.70
2023-01-12T15:54:21.870Z,15.07
2023-01-12T15:56:50.151Z,11.95
2023-01-12T15:59:18.295Z,21.40
2023-01-12T16:01:48.727Z,30.23
2023-01-12T16:07:07.671Z,28.73
2023-01-12T16:09:35.974Z,28.90
2023-01-12T16:12:04.448Z,26.10
2023-01-12T16:14:32.646Z,30.88
2023-01-12T16:17:00.795Z,29.50
2023-01-12T16:19:29.079Z,24.13
2023-01-12T16:21:57.332Z,27.83
2023-01-12T16:24:26.844Z,32.42
2023-01-12T16:26:55.303Z,24.85
2023-01-12T16:29:24.228Z,23.08
2023-01-12T16:31:52.552Z,26.05
2023-01-12T16:34:23.651Z,20.65
2023-01-12T16:36:51.987Z,25.48
2023-01-12T16:39:20.221Z,24.23
2023-01-12T16:41:48.667Z,24.27
2023-01-12T16:44:16.860Z,24.13
2023-01-12T16:46:45.198Z,26.98
2023-01-12T16:49:13.334Z,17.02
2023-01-12T16:51:42.071Z,20.77
2023-01-12T16:54:10.252Z,22.67
2023-01-12T16:56:42.098Z,20.60
2023-01-12T16:59:10.351Z,20.02
2023-01-12T17:01:38.629Z,16.70
2023-01-12T17:04:06.911Z,19.40
2023-01-12T17:06:36.959Z,20.00
2023-01-12T17:09:06.425Z,17.63
2023-01-12T17:11:35.723Z,18.85
2023-01-12T17:14:23.017Z,20.58
2023-01-12T17:16:54.417Z,18.75
2023-01-12T17:19:24.256Z,15.93
2023-01-12T17:21:54.997Z,19.35
2023-01-12T17:24:24.342Z,23.63
2023-01-12T17:26:56.651Z,19.20
2023-01-12T17:29:26.780Z,15.43
2023-01-12T17:32:03.305Z,14.60
2023-01-12T17:34:34.008Z,18.63
2023-01-12T17:37:04.174Z,17.33
2023-01-12T17:39:32.329Z,21.58
2023-01-12T17:42:19.190Z,16.50
2023-01-12T17:44:47.619Z,20.95
2023-01-12T17:47:15.900Z,18.20
2023-01-12T17:49:45.290Z,18.48
2023-01-12T17:52:14.140Z,15.30
2023-01-12T17:54:42.418Z,13.70
2023-01-12T17:57:10.638Z,17.05
2023-01-12T17:59:39.211Z,16.83
2023-01-12T18:02:07.874Z,19.27
2023-01-12T18:04:36.066Z,16.85
2023-01-12T18:07:04.268Z,17.98
2023-01-12T18:09:32.517Z,18.33
2023-01-12T18:12:04.813Z,15.88
2023-01-12T18:14:33.825Z,14.02
2023-01-12T18:17:02.376Z,17.83
2023-01-12T18:19:30.727Z,18.38
2023-01-12T18:21:59.113Z,23.48
2023-01-12T18:24:27.631Z,22.60
2023-01-12T18:26:55.967Z,24.55
2023-01-12T18:29:24.885Z,27.45
2023-01-12T18:31:53.151Z,27.73
2023-01-12T18:34:21.408Z,26.38
2023-01-12T18:36:49.545Z,33.25
2023-01-12T18:39:22.034Z,31.90
2023-01-12T18:42:09.507Z,28.40
2023-01-12T18:44:38.812Z,28.25
2023-01-12T18:47:26.036Z,26.77
2023-01-12T18:49:57.630Z,24.20
2023-01-12T18:52:44.444Z,34.10
2023-01-12T18:55:13.745Z,28.42
2023-01-12T18:57:41.973Z,29.88
2023-01-12T19:00:17.832Z,31.58
2023-01-12T19:02:46.998Z,30.38
2023-01-12T19:05:19.969Z,26.08
2023-01-12T19:08:00.220Z,27.13
2023-01-12T19:10:30.306Z,23.90
2023-01-12T19:13:18.029Z,27.60
2023-01-12T19:16:04.824Z,24.83
2023-01-12T19:18:39.371Z,28.33
2023-01-12T19:21:28.451Z,28.20
2023-01-12T19:24:15.389Z,26.98
2023-01-12T19:27:02.082Z,25.85
2023-01-12T19:29:35.105Z,20.98
2023-01-12T19:32:04.542Z,23.27
2023-01-12T19:34:32.735Z,23.92
2023-01-12T19:37:00.966Z,21.13
2023-01-12T19:40:00.292Z,22.65
2023-01-12T19:42:50.395Z,24.08
2023-01-12T19:45:18.919Z,21.88
2023-01-12T19:47:48.855Z,24.05
2023-01-12T19:50:17.575Z,24.05
2023-01-12T19:52:46.640Z,21.38
2023-01-12T19:55:15.339Z,22.60
2023-01-12T19:57:44.940Z,19.75
2023-01-12T20:00:15.310Z,18.10
2023-01-12T20:02:48.783Z,16.67
2023-01-12T20:05:22.530Z,17.38
2023-01-12T20:07:52.674Z,21.67
2023-01-12T20:10:24.380Z,21.58
2023-01-12T20:12:52.702Z,20.92
2023-01-12T20:15:21.485Z,19.45
2023-01-12T20:17:50.538Z,17.65
2023-01-12T20:20:19.381Z,20.02
2023-01-12T20:22:50.050Z,22.63
2023-01-12T20:25:19.346Z,25.88
2023-01-12T20:27:49.193Z,20.15
2023-01-12T20:30:31.948Z,24.33
2023-01-12T20:33:06.238Z,30.50
2023-01-12T20:35:35.260Z,24.80
2023-01-12T20:38:06.847Z,31.60
2023-01-12T20:40:38.949Z,23.85
2023-01-12T20:43:07.419Z,25.25
2023-01-12T20:45:35.637Z,26.25
2023-01-12T20:48:04.371Z,22.10
2023-01-12T20:50:33.254Z,24.98
2023-01-12T20:53:01.639Z,22.33
2023-01-12T20:55:29.873Z,26.33
2023-01-12T20:58:00.726Z,27.80
2023-01-12T21:00:32.674Z,23.58
2023-01-12T21:03:01.035Z,24.73
2023-01-12T21:05:30.665Z,26.10
2023-01-12T21:08:07.347Z,28.52
2023-01-12T21:10:47.744Z,28.48
2023-01-12T21:13:16.709Z,28.48
2023-01-12T21:15:45.050Z,32.08
2023-01-12T21:18:13.577Z,31.55
2023-01-12T21:20:43.249Z,37.78
2023-01-12T21:23:11.865Z,30.33
2023-01-12T21:25:45.469Z,31.70
2023-01-12T21:28:14.399Z,41.80
2023-01-12T21:30:42.562Z,36.30
2023-01-12T21:33:11.735Z,35.30
2023-01-12T21:35:40.485Z,42.25
2023-01-12T21:38:09.680Z,35.47
2023-01-12T21:40:38.931Z,39.17
2023-01-12T21:43:09.938Z,35.15
2023-01-12T21:45:39.855Z,41.00
2023-01-12T21:48:08.975Z,37.00
2023-01-12T21:50:38.332Z,36.70
2023-01-12T21:53:07.423Z,44.15
2023-01-12T21:55:36.156Z,35.38
2023-01-12T21:58:07.485Z,39.63
2023-01-12T22:00:37.080Z,33.35
2023-01-12T22:03:05.875Z,45.05
2023-01-12T22:05:34.321Z,39.10
2023-01-12T22:08:03.365Z,34.80
2023-01-12T22:10:31.822Z,45.13
2023-01-12T22:13:02.768Z,38.97
2023-01-12T22:15:31.770Z,37.70
2023-01-12T22:18:00.683Z,37.72
2023-01-12T22:20:28.977Z,30.55
2023-01-12T22:22:57.310Z,37.80
2023-01-12T22:25:26.068Z,36.55
2023-01-12T22:27:55.995Z,34.47
2023-01-12T22:30:25.403Z,33.53
2023-01-12T22:32:57.913Z,32.08
2023-01-12T22:35:26.389Z,33.88
2023-01-12T22:37:58.618Z,36.28
2023-01-12T22:40:26.851Z,32.05
2023-01-12T22:43:13.702Z,26.35
2023-01-12T22:45:41.949Z,30.30
2023-01-12T22:48:10.198Z,29.17
2023-01-12T22:50:38.425Z,31.52
2023-01-12T22:53:06.628Z,38.03
2023-01-12T22:55:37.869Z,30.25
2023-01-12T22:58:07.337Z,33.28
2023-01-12T23:00:40.363Z,33.03
2023-01-12T23:03:13.200Z,33.27
2023-01-12T23:05:49.328Z,30.67
2023-01-12T23:08:17.664Z,23.30
2023-01-12T23:10:45.988Z,28.67
2023-01-12T23:13:19.903Z,28.63
2023-01-12T23:15:55.733Z,25.63
2023-01-12T23:18:29.521Z,31.15
2023-01-12T23:21:15.968Z,24.73
2023-01-12T23:23:49.416Z,23.48
2023-01-12T23:26:20.480Z,23.08
2023-01-12T23:28:51.673Z,24.52
2023-01-12T23:31:22.359Z,23.48
2023-01-12T23:33:51.195Z,29.35
2023-01-12T23:36:22.300Z,25.38
2023-01-12T23:38:59.214Z,25.30
2023-01-12T23:41:29.291Z,23.65
2023-01-12T23:43:59.970Z,24.88
2023-01-12T23:46:30.273Z,22.55
2023-01-12T23:48:58.763Z,28.63
2023-01-12T23:51:28.970Z,29.88
2023-01-12T23:53:59.452Z,23.48
2023-01-12T23:56:32.603Z,24.05
2023-01-12T23:59:01.664Z,26.65
